Time;durP1;ratioP1;P1;durP2;ratioP2;P2;SDS_P1;SDS_P2;PMS_P1;PMS_P2;Temp;Humidity;BMP_temperature;BMP_pressure;BME280_temperature;BME280_humidity;BME280_pressure;Samples;Min_cycle;Max_cycle;Signal;HPM_P1;HPM_P2
2021/10/31 00:00:05;;;;;;;;;;;12.00;99.90;;;;;;5074668;28;19958;-78
2021/10/31 00:02:30;;;;;;;;;;;11.90;99.90;;;;;;5071276;28;19912;-82
2021/10/31 00:04:56;;;;;;;;;;;11.90;99.90;;;;;;5074034;28;20502;-78
2021/10/31 00:07:21;;;;;;;;;;;11.80;99.90;;;;;;5066094;28;20039;-80
2021/10/31 00:09:47;;;;;;;;;;;11.80;99.90;;;;;;5064494;28;20408;-77
2021/10/31 00:12:12;;;;;;;;;;;11.80;99.90;;;;;;5057818;28;19959;-79
2021/10/31 00:14:38;;;;;;;;;;;11.80;99.90;;;;;;5072710;28;19913;-81
2021/10/31 00:17:04;;;;;;;;;;;11.90;99.90;;;;;;5069828;28;19923;-77
2021/10/31 00:19:29;;;;;;;;;;;11.90;99.90;;;;;;5053508;28;19919;-79
2021/10/31 00:21:55;;;;;;;;;;;12.00;99.90;;;;;;5074574;28;19917;-78
2021/10/31 00:24:21;;;;;;;;;;;12.00;99.90;;;;;;5066468;28;19919;-82
2021/10/31 00:26:46;;;;;;;;;;;11.80;99.90;;;;;;5067562;28;19946;-83
2021/10/31 00:29:12;;;;;;;;;;;11.80;99.90;;;;;;5069622;28;20054;-83
2021/10/31 00:31:38;;;;;;;;;;;11.60;99.90;;;;;;5049805;28;19920;-79
2021/10/31 00:34:03;;;;;;;;;;;11.60;99.90;;;;;;5072814;28;19908;-82
2021/10/31 00:36:29;;;;;;;;;;;11.60;99.90;;;;;;5078681;28;19920;-79
2021/10/31 00:38:55;;;;;;;;;;;11.50;99.90;;;;;;5048958;28;19919;-82
2021/10/31 00:41:21;;;;;;;;;;;11.60;99.90;;;;;;5077773;28;19912;-82
2021/10/31 00:43:46;;;;;;;;;;;11.70;99.90;;;;;;5065882;28;19916;-78
2021/10/31 00:46:12;;;;;;;;;;;11.80;99.90;;;;;;5070768;28;19963;-80
2021/10/31 00:48:38;;;;;;;;;;;11.80;99.90;;;;;;5069287;28;19916;-81
2021/10/31 00:51:04;;;;;;;;;;;11.80;99.90;;;;;;5067119;28;19974;-83
2021/10/31 00:53:29;;;;;;;;;;;11.80;99.90;;;;;;5069418;28;19970;-82
2021/10/31 00:55:55;;;;;;;;;;;11.80;99.90;;;;;;5070306;28;20078;-83
2021/10/31 00:58:20;;;;;;;;;;;11.70;99.90;;;;;;5069396;28;19922;-83
2021/10/31 01:00:47;;;;;;;;;;;11.60;99.90;;;;;;5066698;28;19920;-83
2021/10/31 01:03:13;;;;;;;;;;;11.60;99.90;;;;;;5068378;28;19920;-82
2021/10/31 01:05:46;;;;;;;;;;;11.40;99.90;;;;;;5053249;28;19909;-74
2021/10/31 01:08:44;;;;;;;;;;;11.30;99.90;;;;;;5067454;28;19995;-82
2021/10/31 01:11:12;;;;;;;;;;;11.10;99.90;;;;;;5025998;28;19921;-80
2021/10/31 01:13:40;;;;;;;;;;;11.10;99.90;;;;;;5063521;28;20424;-83
2021/10/31 01:16:11;;;;;;;;;;;11.20;99.90;;;;;;5070805;28;20022;-82
2021/10/31 01:18:39;;;;;;;;;;;11.30;99.90;;;;;;5070056;28;19921;-81
2021/10/31 01:21:28;;;;;;;;;;;11.20;99.90;;;;;;5060111;28;19912;-84
2021/10/31 01:24:05;;;;;;;;;;;11.30;99.90;;;;;;5035872;28;19916;-84
2021/10/31 01:26:46;;;;;;;;;;;11.30;99.90;;;;;;5062201;28;19916;-82
2021/10/31 01:29:47;;;;;;;;;;;11.30;99.90;;;;;;5073765;28;19912;-84
2021/10/31 01:32:31;;;;;;;;;;;11.30;99.90;;;;;;5024288;28;20634;-84
2021/10/31 01:35:15;;;;;;;;;;;11.30;99.90;;;;;;5041677;28;19916;-84
2021/10/31 01:37:52;;;;;;;;;;;11.30;99.90;;;;;;5068041;28;19916;-78
2021/10/31 01:40:41;;;;;;;;;;;11.20;99.90;;;;;;5051297;28;19970;-84
2021/10/31 01:43:10;;;;;;;;;;;11.20;99.90;;;;;;5031151;28;19952;-82
2021/10/31 01:45:54;;;;;;;;;;;11.10;99.90;;;;;;5073026;28;19908;-83
2021/10/31 01:48:29;;;;;;;;;;;11.10;99.90;;;;;;5069416;28;19920;-82
2021/10/31 01:51:00;;;;;;;;;;;11.00;99.90;;;;;;5068312;28;19974;-84
2021/10/31 01:53:37;;;;;;;;;;;11.00;99.90;;;;;;5060055;28;19919;-83
2021/10/31 01:56:06;;;;;;;;;;;11.00;99.90;;;;;;5078321;28;20228;-84
2021/10/31 01:58:34;;;;;;;;;;;11.00;99.90;;;;;;5064363;28;19918;-81
2021/10/31 02:01:00;;;;;;;;;;;10.90;99.90;;;;;;5067733;28;19995;-82
2021/10/31 02:03:26;;;;;;;;;;;10.90;99.90;;;;;;5079902;28;20007;-83
2021/10/31 02:05:52;;;;;;;;;;;10.90;99.90;;;;;;5071429;28;20344;-83
2021/10/31 02:08:19;;;;;;;;;;;10.90;99.90;;;;;;5065817;28;19916;-82
2021/10/31 02:10:46;;;;;;;;;;;10.70;99.90;;;;;;5067608;28;20015;-82
2021/10/31 02:13:13;;;;;;;;;;;10.40;99.90;;;;;;5052729;28;19912;-82
2021/10/31 02:15:39;;;;;;;;;;;10.30;99.90;;;;;;5052764;28;20329;-82
2021/10/31 02:18:05;;;;;;;;;;;10.10;99.90;;;;;;5072607;28;20075;-83
2021/10/31 02:20:31;;;;;;;;;;;10.20;99.90;;;;;;5071159;28;19958;-82
2021/10/31 02:22:57;;;;;;;;;;;10.30;99.90;;;;;;5078617;28;20375;-84
2021/10/31 02:25:23;;;;;;;;;;;10.40;99.90;;;;;;5071314;28;20015;-82
2021/10/31 02:27:49;;;;;;;;;;;10.40;99.90;;;;;;5070268;28;20058;-84
2021/10/31 02:30:15;;;;;;;;;;;10.50;99.90;;;;;;5058720;28;19928;-83
2021/10/31 02:32:40;;;;;;;;;;;10.50;99.90;;;;;;5050304;28;19919;-84
2021/10/31 02:35:11;;;;;;;;;;;10.50;99.90;;;;;;5074716;28;19946;-84
2021/10/31 02:37:37;;;;;;;;;;;10.50;99.90;;;;;;5073320;28;19913;-82
2021/10/31 02:40:04;;;;;;;;;;;10.40;99.90;;;;;;5071284;28;19927;-83
2021/10/31 02:42:30;;;;;;;;;;;10.40;99.90;;;;;;5069690;28;20001;-81
2021/10/31 02:44:55;;;;;;;;;;;10.50;99.90;;;;;;5091342;28;19959;-79
2021/10/31 02:47:26;;;;;;;;;;;10.50;99.90;;;;;;5084707;28;20378;-83
2021/10/31 02:49:52;;;;;;;;;;;10.50;99.90;;;;;;5078555;28;19912;-84
2021/10/31 02:52:23;;;;;;;;;;;10.50;99.90;;;;;;5065098;28;20007;-84
2021/10/31 02:54:54;;;;;;;;;;;10.40;99.90;;;;;;5082487;28;19908;-83
2021/10/31 02:57:25;;;;;;;;;;;10.30;99.90;;;;;;5074856;28;19912;-81
2021/10/31 02:59:54;;;;;;;;;;;10.20;99.90;;;;;;5079356;28;19912;-79
2021/10/31 03:02:20;;;;;;;;;;;10.20;99.90;;;;;;5049484;28;19912;-83
2021/10/31 03:04:46;;;;;;;;;;;10.30;99.90;;;;;;5074642;28;19912;-83
2021/10/31 03:07:12;;;;;;;;;;;10.30;99.90;;;;;;5073025;28;19918;-84
2021/10/31 03:09:38;;;;;;;;;;;10.30;99.90;;;;;;5081913;28;19936;-84
2021/10/31 03:12:05;;;;;;;;;;;10.30;99.90;;;;;;5070414;28;19978;-72
2021/10/31 03:14:31;;;;;;;;;;;10.30;99.90;;;;;;5075360;28;20253;-84
2021/10/31 03:16:56;;;;;;;;;;;10.30;99.90;;;;;;5075487;28;19926;-84
2021/10/31 03:19:22;;;;;;;;;;;10.20;99.90;;;;;;5068418;28;19921;-83
2021/10/31 03:21:47;;;;;;;;;;;10.20;99.90;;;;;;5062016;28;20334;-81
2021/10/31 03:24:13;;;;;;;;;;;10.10;99.90;;;;;;5087001;28;20279;-84
2021/10/31 03:26:38;;;;;;;;;;;10.10;99.90;;;;;;5063183;28;20344;-84
2021/10/31 03:29:04;;;;;;;;;;;10.10;99.90;;;;;;5064320;28;19955;-85
2021/10/31 03:31:29;;;;;;;;;;;10.10;99.90;;;;;;5061839;28;19998;-79
2021/10/31 03:33:55;;;;;;;;;;;10.10;99.90;;;;;;5053194;28;20412;-82
2021/10/31 03:36:20;;;;;;;;;;;10.10;99.90;;;;;;5073110;28;19913;-82
2021/10/31 03:38:46;;;;;;;;;;;10.10;99.90;;;;;;5069492;28;20351;-84
2021/10/31 03:41:11;;;;;;;;;;;10.10;99.90;;;;;;5049813;28;20884;-84
2021/10/31 03:43:37;;;;;;;;;;;10.20;99.90;;;;;;5066540;28;19913;-85
2021/10/31 03:46:02;;;;;;;;;;;10.10;99.90;;;;;;5068550;28;19958;-80
2021/10/31 03:48:28;;;;;;;;;;;10.00;99.90;;;;;;5075427;28;19924;-81
2021/10/31 03:50:53;;;;;;;;;;;10.10;99.90;;;;;;5070211;28;19920;-81
2021/10/31 03:53:19;;;;;;;;;;;10.20;99.90;;;;;;5068729;28;19916;-80
2021/10/31 03:55:44;;;;;;;;;;;10.10;99.90;;;;;;5069457;28;20272;-85
2021/10/31 03:58:10;;;;;;;;;;;10.10;99.90;;;;;;5069543;28;19913;-84
2021/10/31 04:00:35;;;;;;;;;;;10.10;99.90;;;;;;5068632;28;20057;-81
2021/10/31 04:03:01;;;;;;;;;;;10.10;99.90;;;;;;5064887;28;19918;-82
2021/10/31 04:05:27;;;;;;;;;;;10.10;99.90;;;;;;5058777;28;19997;-83
2021/10/31 04:07:53;;;;;;;;;;;10.10;99.90;;;;;;5067860;28;19920;-80
2021/10/31 04:10:18;;;;;;;;;;;10.20;99.90;;;;;;5051199;28;20031;-84
2021/10/31 04:12:44;;;;;;;;;;;10.20;99.90;;;;;;5048661;28;20314;-83
2021/10/31 04:15:09;;;;;;;;;;;10.10;99.90;;;;;;5073617;28;20351;-82
2021/10/31 04:17:35;;;;;;;;;;;10.10;99.90;;;;;;5070321;28;20388;-82
2021/10/31 04:20:00;;;;;;;;;;;10.10;99.90;;;;;;5064310;28;19962;-85
2021/10/31 04:22:29;;;;;;;;;;;10.20;99.90;;;;;;5089921;28;19979;-84
2021/10/31 04:24:55;;;;;;;;;;;10.20;99.90;;;;;;5064822;28;19920;-82
2021/10/31 04:27:20;;;;;;;;;;;10.20;99.90;;;;;;5072549;28;20785;-83
2021/10/31 04:29:46;;;;;;;;;;;10.10;99.90;;;;;;5067523;28;20253;-84
2021/10/31 04:32:11;;;;;;;;;;;10.10;99.90;;;;;;5072233;28;20356;-76
2021/10/31 04:34:37;;;;;;;;;;;10.10;99.90;;;;;;5069709;28;20356;-82
2021/10/31 04:37:03;;;;;;;;;;;10.10;99.90;;;;;;5068588;28;19912;-80
2021/10/31 04:39:28;;;;;;;;;;;10.10;99.90;;;;;;5067972;28;19913;-83
2021/10/31 04:42:01;;;;;;;;;;;10.10;99.90;;;;;;5067339;28;20371;-83
2021/10/31 04:44:27;;;;;;;;;;;10.00;99.90;;;;;;5056457;28;19939;-83
2021/10/31 04:46:52;;;;;;;;;;;9.90;99.90;;;;;;5068216;28;19916;-83
2021/10/31 04:49:18;;;;;;;;;;;9.90;99.90;;;;;;5064118;28;19948;-82
2021/10/31 04:51:43;;;;;;;;;;;9.80;99.90;;;;;;5069560;28;19920;-81
2021/10/31 04:54:09;;;;;;;;;;;9.60;99.90;;;;;;5061164;28;20224;-81
2021/10/31 04:56:34;;;;;;;;;;;9.50;99.90;;;;;;5064383;28;19908;-83
2021/10/31 04:59:00;;;;;;;;;;;9.60;99.90;;;;;;5066955;28;19913;-84
2021/10/31 05:01:25;;;;;;;;;;;9.60;99.90;;;;;;5079301;28;19913;-83
2021/10/31 05:03:51;;;;;;;;;;;9.70;99.90;;;;;;5066648;28;19912;-83
2021/10/31 05:06:16;;;;;;;;;;;9.70;99.90;;;;;;5067345;28;19913;-84
2021/10/31 05:08:42;;;;;;;;;;;9.70;99.90;;;;;;5070151;28;20006;-83
2021/10/31 05:11:09;;;;;;;;;;;9.60;99.90;;;;;;5069440;28;19958;-82
2021/10/31 05:13:34;;;;;;;;;;;9.60;99.90;;;;;;5067224;28;19912;-82
2021/10/31 05:16:00;;;;;;;;;;;9.50;99.90;;;;;;5070765;28;20003;-82
2021/10/31 05:18:26;;;;;;;;;;;9.30;99.90;;;;;;5067993;28;20014;-80
2021/10/31 05:20:52;;;;;;;;;;;9.20;99.90;;;;;;5066530;28;19909;-79
2021/10/31 05:23:17;;;;;;;;;;;9.00;99.90;;;;;;5074764;28;20715;-83
2021/10/31 05:25:43;;;;;;;;;;;9.00;99.90;;;;;;5066542;28;19940;-82
2021/10/31 05:28:08;;;;;;;;;;;9.00;99.90;;;;;;5075205;28;19959;-83
2021/10/31 05:30:34;;;;;;;;;;;9.10;99.90;;;;;;5064460;28;20439;-80
2021/10/31 05:32:59;;;;;;;;;;;9.40;99.90;;;;;;5061978;28;19913;-84
2021/10/31 05:35:25;;;;;;;;;;;9.50;99.90;;;;;;5074315;28;19939;-81
2021/10/31 05:37:57;;;;;;;;;;;9.40;99.90;;;;;;5073325;28;19931;-79
2021/10/31 05:40:23;;;;;;;;;;;9.40;99.90;;;;;;5067340;28;20007;-83
2021/10/31 05:42:48;;;;;;;;;;;9.50;99.90;;;;;;5069971;28;19984;-83
2021/10/31 05:45:14;;;;;;;;;;;9.40;99.90;;;;;;5073147;28;19958;-81
2021/10/31 05:47:40;;;;;;;;;;;9.30;99.90;;;;;;5043980;28;20352;-82
2021/10/31 05:50:07;;;;;;;;;;;9.50;99.90;;;;;;5072650;28;20153;-84
2021/10/31 05:52:35;;;;;;;;;;;9.50;99.90;;;;;;5050004;28;19999;-84
2021/10/31 05:55:01;;;;;;;;;;;9.50;99.90;;;;;;5076522;28;19931;-82
2021/10/31 05:57:27;;;;;;;;;;;9.50;99.90;;;;;;5068292;28;19913;-82
2021/10/31 05:59:56;;;;;;;;;;;9.50;99.90;;;;;;5075909;28;19908;-75
2021/10/31 06:02:22;;;;;;;;;;;9.40;99.90;;;;;;5055579;28;19913;-83
2021/10/31 06:04:47;;;;;;;;;;;9.40;99.90;;;;;;5071865;28;20306;-83
2021/10/31 06:07:13;;;;;;;;;;;9.40;99.90;;;;;;5067870;28;20011;-82
2021/10/31 06:09:39;;;;;;;;;;;9.40;99.90;;;;;;5057999;28;19934;-82
2021/10/31 06:12:05;;;;;;;;;;;9.30;99.90;;;;;;5070972;28;19969;-83
2021/10/31 06:14:31;;;;;;;;;;;9.20;99.90;;;;;;5067678;28;19913;-81
2021/10/31 06:16:57;;;;;;;;;;;9.10;99.90;;;;;;5068808;28;19946;-82
2021/10/31 06:19:22;;;;;;;;;;;9.10;99.90;;;;;;5078812;28;20321;-84
2021/10/31 06:21:48;;;;;;;;;;;9.30;99.90;;;;;;5065668;28;19913;-81
2021/10/31 06:24:14;;;;;;;;;;;9.30;99.90;;;;;;5072299;28;19922;-82
2021/10/31 06:26:39;;;;;;;;;;;9.30;99.90;;;;;;5069242;28;19913;-83
2021/10/31 06:29:05;;;;;;;;;;;9.60;99.90;;;;;;5065976;28;19909;-83
2021/10/31 06:31:30;;;;;;;;;;;9.70;99.90;;;;;;5055558;28;19917;-82
2021/10/31 06:33:56;;;;;;;;;;;9.70;99.90;;;;;;5069239;28;19923;-82
2021/10/31 06:36:21;;;;;;;;;;;9.70;99.90;;;;;;5070731;28;19978;-81
2021/10/31 06:38:47;;;;;;;;;;;9.90;99.90;;;;;;5068462;28;19999;-79
2021/10/31 06:41:12;;;;;;;;;;;10.00;99.90;;;;;;5068324;28;20006;-85
2021/10/31 06:43:38;;;;;;;;;;;9.90;99.90;;;;;;5070851;28;19995;-82
2021/10/31 06:46:03;;;;;;;;;;;10.00;99.90;;;;;;5076421;28;19952;-85
2021/10/31 06:48:29;;;;;;;;;;;10.00;99.90;;;;;;5059825;28;19924;-84
2021/10/31 06:50:56;;;;;;;;;;;10.10;99.90;;;;;;5068418;28;19928;-82
2021/10/31 06:53:22;;;;;;;;;;;10.10;99.90;;;;;;5068405;28;19912;-84
2021/10/31 06:55:48;;;;;;;;;;;10.10;99.90;;;;;;5070128;28;19916;-78
2021/10/31 06:58:13;;;;;;;;;;;10.10;99.90;;;;;;5069380;28;19916;-84
2021/10/31 07:00:39;;;;;;;;;;;10.10;99.90;;;;;;5047550;28;19916;-84
2021/10/31 07:03:04;;;;;;;;;;;10.10;99.90;;;;;;5059576;28;19919;-83
2021/10/31 07:05:30;;;;;;;;;;;10.10;99.90;;;;;;5066128;28;19913;-80
2021/10/31 07:07:55;;;;;;;;;;;10.20;99.90;;;;;;5070038;28;19912;-81
2021/10/31 07:10:21;;;;;;;;;;;10.20;99.90;;;;;;5073674;28;19936;-82
2021/10/31 07:12:46;;;;;;;;;;;10.20;99.90;;;;;;5054667;28;19924;-85
2021/10/31 07:15:12;;;;;;;;;;;10.30;99.90;;;;;;5072156;28;20348;-84
2021/10/31 07:17:38;;;;;;;;;;;10.30;99.90;;;;;;5054349;28;19974;-85
2021/10/31 07:20:04;;;;;;;;;;;10.40;99.90;;;;;;5083266;28;19921;-84
2021/10/31 07:22:30;;;;;;;;;;;10.50;99.90;;;;;;5078955;28;19916;-79
2021/10/31 07:24:56;;;;;;;;;;;10.60;99.90;;;;;;5068037;28;19923;-81
2021/10/31 07:27:22;;;;;;;;;;;10.80;99.90;;;;;;5052464;28;20353;-82
2021/10/31 07:29:47;;;;;;;;;;;10.80;99.90;;;;;;5064462;28;19924;-69
2021/10/31 07:32:13;;;;;;;;;;;10.90;99.90;;;;;;5074768;28;20360;-69
2021/10/31 07:34:39;;;;;;;;;;;11.00;99.90;;;;;;5084399;28;20368;-69
2021/10/31 07:37:05;;;;;;;;;;;11.10;99.90;;;;;;5073471;28;19989;-83
2021/10/31 07:39:30;;;;;;;;;;;11.10;99.90;;;;;;5071074;28;19958;-78
2021/10/31 07:41:56;;;;;;;;;;;11.20;99.90;;;;;;5086692;28;19956;-80
2021/10/31 07:44:22;;;;;;;;;;;11.30;99.90;;;;;;5071943;28;19913;-84
2021/10/31 07:46:47;;;;;;;;;;;11.30;99.90;;;;;;5064619;28;20383;-84
2021/10/31 07:49:13;;;;;;;;;;;11.40;99.90;;;;;;5058559;28;19917;-78
2021/10/31 07:51:38;;;;;;;;;;;11.40;99.90;;;;;;5050523;28;19942;-82
2021/10/31 07:54:04;;;;;;;;;;;11.50;99.90;;;;;;5052209;28;19931;-80
2021/10/31 07:56:33;;;;;;;;;;;11.50;99.90;;;;;;5035254;28;19920;-82
2021/10/31 07:58:59;;;;;;;;;;;11.60;99.90;;;;;;5042741;28;19913;-83
2021/10/31 08:01:25;;;;;;;;;;;11.60;99.90;;;;;;5057884;28;19939;-84
2021/10/31 08:03:51;;;;;;;;;;;11.60;99.90;;;;;;5045179;28;19921;-83
2021/10/31 08:06:17;;;;;;;;;;;11.60;99.90;;;;;;5029681;28;19929;-82
2021/10/31 08:08:43;;;;;;;;;;;11.60;99.90;;;;;;5052382;28;20557;-83
2021/10/31 08:11:08;;;;;;;;;;;11.70;99.90;;;;;;5047677;28;19967;-82
2021/10/31 08:13:34;;;;;;;;;;;11.70;99.90;;;;;;5035268;28;19963;-83
2021/10/31 08:15:59;;;;;;;;;;;11.70;99.90;;;;;;5053419;28;19913;-82
2021/10/31 08:18:25;;;;;;;;;;;11.70;99.90;;;;;;5031616;28;19920;-82
2021/10/31 08:20:51;;;;;;;;;;;11.70;99.90;;;;;;5048824;28;19936;-84
2021/10/31 08:23:17;;;;;;;;;;;11.80;99.90;;;;;;5034611;28;20020;-84
2021/10/31 08:25:43;;;;;;;;;;;11.80;99.90;;;;;;5046325;28;19913;-70
2021/10/31 08:28:10;;;;;;;;;;;11.90;99.90;;;;;;5047602;28;19928;-70
2021/10/31 08:30:36;;;;;;;;;;;12.00;99.90;;;;;;5046012;28;19948;-70
2021/10/31 08:33:19;;;;;;;;;;;12.10;99.90;;;;;;5053175;28;20026;-70
2021/10/31 08:35:45;;;;;;;;;;;12.30;99.90;;;;;;5035419;28;19921;-70
2021/10/31 08:38:11;;;;;;;;;;;12.70;99.90;;;;;;5040963;28;19944;-70
2021/10/31 08:40:37;;;;;;;;;;;13.30;99.90;;;;;;5043913;28;19952;-70
2021/10/31 08:43:03;;;;;;;;;;;13.80;99.90;;;;;;5042790;28;20272;-70
2021/10/31 08:45:28;;;;;;;;;;;14.10;99.90;;;;;;5041023;28;19917;-71
2021/10/31 08:47:54;;;;;;;;;;;14.70;99.90;;;;;;5050264;28;20007;-70
2021/10/31 08:50:19;;;;;;;;;;;14.60;99.90;;;;;;5045481;28;19921;-70
2021/10/31 08:52:47;;;;;;;;;;;14.60;99.90;;;;;;5048916;28;20416;-70
2021/10/31 08:55:12;;;;;;;;;;;14.80;99.90;;;;;;5051194;28;20003;-71
2021/10/31 08:57:39;;;;;;;;;;;14.90;99.90;;;;;;5051118;28;19935;-70
2021/10/31 09:00:06;;;;;;;;;;;14.90;99.90;;;;;;5052889;28;19913;-71
2021/10/31 09:02:32;;;;;;;;;;;14.80;99.90;;;;;;5060231;28;19917;-72
2021/10/31 09:04:57;;;;;;;;;;;14.90;99.90;;;;;;5056456;28;19965;-71
2021/10/31 09:07:23;;;;;;;;;;;15.10;99.90;;;;;;5039274;28;20447;-71
2021/10/31 09:09:48;;;;;;;;;;;15.30;99.90;;;;;;5055457;28;19913;-70
2021/10/31 09:12:14;;;;;;;;;;;15.60;99.90;;;;;;5067160;28;19955;-71
2021/10/31 09:14:40;;;;;;;;;;;16.20;99.90;;;;;;5046329;28;20527;-72
2021/10/31 09:17:06;;;;;;;;;;;15.80;99.90;;;;;;5053302;28;21393;-72
2021/10/31 09:19:32;;;;;;;;;;;15.90;99.90;;;;;;5049641;28;20011;-72
2021/10/31 09:21:58;;;;;;;;;;;16.00;99.90;;;;;;5053740;28;19912;-71
2021/10/31 09:24:23;;;;;;;;;;;16.20;99.90;;;;;;5052227;28;19909;-72
2021/10/31 09:26:49;;;;;;;;;;;16.00;99.90;;;;;;5048222;28;19928;-72
2021/10/31 09:29:14;;;;;;;;;;;15.80;99.90;;;;;;5042609;28;19912;-72
2021/10/31 09:31:40;;;;;;;;;;;15.70;99.90;;;;;;5028747;28;19925;-72
2021/10/31 09:34:05;;;;;;;;;;;15.40;99.90;;;;;;5048565;28;20380;-73
2021/10/31 09:36:35;;;;;;;;;;;15.20;99.90;;;;;;5044625;28;19996;-73
2021/10/31 09:39:05;;;;;;;;;;;15.30;99.90;;;;;;5044613;28;19916;-73
2021/10/31 09:41:31;;;;;;;;;;;15.10;99.90;;;;;;5042700;28;20319;-72
2021/10/31 09:46:41;;;;;;;;;;;15.60;99.90;;;;;;5042662;28;19921;-72
2021/10/31 09:49:08;;;;;;;;;;;15.60;99.90;;;;;;5047693;28;19985;-72
2021/10/31 09:51:34;;;;;;;;;;;15.60;99.90;;;;;;5058002;28;20378;-72
2021/10/31 09:54:00;;;;;;;;;;;15.70;99.90;;;;;;5049406;28;19912;-72
2021/10/31 09:56:26;;;;;;;;;;;15.90;99.90;;;;;;5042380;28;19917;-72
2021/10/31 09:58:53;;;;;;;;;;;15.80;99.90;;;;;;5048594;28;19920;-72
2021/10/31 10:01:25;;;;;;;;;;;16.10;99.90;;;;;;5044847;28;19964;-72
2021/10/31 10:03:55;;;;;;;;;;;16.30;99.90;;;;;;5044351;28;19956;-71
2021/10/31 10:06:21;;;;;;;;;;;16.30;99.90;;;;;;5052051;28;19920;-72
2021/10/31 10:08:58;;;;;;;;;;;16.30;99.90;;;;;;5032235;28;19917;-72
2021/10/31 10:11:24;;;;;;;;;;;16.60;99.90;;;;;;5045253;28;20001;-72
2021/10/31 10:13:50;;;;;;;;;;;16.90;99.90;;;;;;5048903;28;19917;-71
2021/10/31 10:16:21;;;;;;;;;;;17.30;99.90;;;;;;5029019;28;19923;-74
2021/10/31 10:18:47;;;;;;;;;;;18.20;99.90;;;;;;5044766;28;20288;-73
2021/10/31 10:21:13;;;;;;;;;;;;;;;;;;5059039;28;19928;-73
2021/10/31 10:23:49;;;;;;;;;;;19.80;99.90;;;;;;5050119;28;19912;-73
2021/10/31 10:26:23;;;;;;;;;;;20.20;99.90;;;;;;5046191;28;20011;-72
2021/10/31 10:28:48;;;;;;;;;;;20.40;99.90;;;;;;5048151;28;19916;-73
2021/10/31 10:31:18;;;;;;;;;;;20.00;99.90;;;;;;5055987;28;19917;-72
2021/10/31 10:33:46;;;;;;;;;;;19.70;99.90;;;;;;5049713;28;20245;-72
2021/10/31 10:36:15;;;;;;;;;;;19.60;99.90;;;;;;5053808;28;19913;-72
2021/10/31 10:38:42;;;;;;;;;;;19.10;99.90;;;;;;5038033;28;19955;-71
2021/10/31 10:41:27;;;;;;;;;;;18.90;99.90;;;;;;5046660;28;20008;-72
2021/10/31 10:43:53;;;;;;;;;;;18.50;99.90;;;;;;5051391;28;20328;-72
2021/10/31 10:46:21;;;;;;;;;;;17.60;99.90;;;;;;5045309;28;19952;-71
2021/10/31 10:48:53;;;;;;;;;;;18.00;99.90;;;;;;5053721;28;19936;-72
2021/10/31 10:51:19;;;;;;;;;;;18.40;99.90;;;;;;5051790;28;20008;-72
2021/10/31 10:53:44;;;;;;;;;;;18.30;99.90;;;;;;5056521;28;20024;-72
2021/10/31 10:56:10;;;;;;;;;;;18.00;99.90;;;;;;5054773;28;19917;-71
2021/10/31 10:58:36;;;;;;;;;;;17.70;99.90;;;;;;5045852;28;19913;-71
2021/10/31 11:01:15;;;;;;;;;;;17.60;99.90;;;;;;5052890;28;19920;-72
2021/10/31 11:03:40;;;;;;;;;;;17.80;99.90;;;;;;5048136;28;20003;-72
2021/10/31 11:06:06;;;;;;;;;;;18.50;99.90;;;;;;5061885;28;19923;-72
2021/10/31 11:08:32;;;;;;;;;;;18.80;99.90;;;;;;5063503;28;19921;-72
2021/10/31 11:11:15;;;;;;;;;;;19.00;99.90;;;;;;5054283;28;20280;-71
2021/10/31 11:13:45;;;;;;;;;;;19.60;99.90;;;;;;5051636;28;19959;-72
2021/10/31 11:16:11;;;;;;;;;;;20.00;99.90;;;;;;5046109;28;20387;-72
2021/10/31 11:18:38;;;;;;;;;;;19.90;99.90;;;;;;5049910;28;20007;-71
2021/10/31 11:21:03;;;;;;;;;;;19.90;99.90;;;;;;5053850;28;19916;-72
2021/10/31 11:23:29;;;;;;;;;;;19.30;99.90;;;;;;5054108;28;19940;-71
2021/10/31 11:25:59;;;;;;;;;;;18.90;99.90;;;;;;5054574;28;19952;-71
2021/10/31 11:28:24;;;;;;;;;;;18.60;99.90;;;;;;5053445;28;19920;-72
2021/10/31 11:30:50;;;;;;;;;;;18.10;99.90;;;;;;5054319;28;19917;-72
2021/10/31 11:33:16;;;;;;;;;;;18.10;99.90;;;;;;5045926;28;19908;-69
2021/10/31 11:35:42;;;;;;;;;;;17.80;99.90;;;;;;5064080;28;20362;-70
2021/10/31 11:38:09;;;;;;;;;;;18.00;99.90;;;;;;5052606;28;19913;-73
2021/10/31 11:40:36;;;;;;;;;;;18.50;99.90;;;;;;5058461;28;19965;-71
2021/10/31 11:43:04;;;;;;;;;;;18.60;99.90;;;;;;5053625;28;19917;-70
2021/10/31 11:45:31;;;;;;;;;;;19.00;99.90;;;;;;5052062;28;19919;-70
2021/10/31 11:48:15;;;;;;;;;;;19.20;99.90;;;;;;5053017;28;20079;-71
2021/10/31 11:50:42;;;;;;;;;;;18.70;99.90;;;;;;5049714;28;19974;-70
2021/10/31 11:53:13;;;;;;;;;;;18.60;99.90;;;;;;5050655;28;19948;-70
2021/10/31 11:55:45;;;;;;;;;;;18.00;99.90;;;;;;5059608;28;19945;-70
2021/10/31 11:58:15;;;;;;;;;;;18.20;99.90;;;;;;5057874;28;20419;-71
2021/10/31 12:00:54;;;;;;;;;;;19.10;99.90;;;;;;5052892;28;20372;-72
2021/10/31 12:03:42;;;;;;;;;;;18.50;99.90;;;;;;5061280;28;20261;-71
2021/10/31 12:06:13;;;;;;;;;;;18.20;99.90;;;;;;5034854;28;19919;-70
2021/10/31 12:08:48;;;;;;;;;;;18.80;99.90;;;;;;5054568;28;20973;-71
2021/10/31 12:11:14;;;;;;;;;;;19.10;99.90;;;;;;5043152;28;20387;-70
2021/10/31 12:13:41;;;;;;;;;;;18.20;99.90;;;;;;5068942;28;19916;-71
2021/10/31 12:16:07;;;;;;;;;;;17.80;99.90;;;;;;5055921;28;19912;-70
2021/10/31 12:18:44;;;;;;;;;;;17.80;99.90;;;;;;5039591;28;19990;-70
2021/10/31 12:21:19;;;;;;;;;;;18.00;99.90;;;;;;5059385;28;19916;-71
2021/10/31 12:23:54;;;;;;;;;;;18.10;99.90;;;;;;5040998;28;20284;-71
2021/10/31 12:26:21;;;;;;;;;;;18.20;99.90;;;;;;5052792;28;20003;-72
2021/10/31 12:28:46;;;;;;;;;;;18.20;99.90;;;;;;5061563;28;19964;-72
2021/10/31 12:31:38;;;;;;;;;;;18.60;99.90;;;;;;5057856;28;19959;-71
2021/10/31 12:34:04;;;;;;;;;;;18.70;99.90;;;;;;5043506;28;19917;-71
2021/10/31 12:36:30;;;;;;;;;;;18.20;99.90;;;;;;5043344;28;20262;-72
2021/10/31 12:38:56;;;;;;;;;;;18.00;99.90;;;;;;5064218;28;19936;-71
2021/10/31 12:41:22;;;;;;;;;;;18.20;99.90;;;;;;5032636;28;19955;-71
2021/10/31 12:44:08;;;;;;;;;;;18.30;99.90;;;;;;5035934;28;19924;-72
2021/10/31 12:46:34;;;;;;;;;;;18.40;99.90;;;;;;5066413;28;20000;-72
2021/10/31 12:49:01;;;;;;;;;;;18.50;99.90;;;;;;5053122;28;20016;-72
2021/10/31 12:52:01;;;;;;;;;;;18.20;99.90;;;;;;5057157;28;19975;-72
2021/10/31 12:54:28;;;;;;;;;;;18.10;99.90;;;;;;5052123;28;20333;-70
2021/10/31 12:56:54;;;;;;;;;;;18.20;99.90;;;;;;5044505;28;20010;-70
2021/10/31 12:59:20;;;;;;;;;;;18.30;99.90;;;;;;5058461;28;20355;-70
2021/10/31 13:01:46;;;;;;;;;;;18.20;99.90;;;;;;5047778;28;20007;-72
2021/10/31 13:04:12;;;;;;;;;;;18.20;99.90;;;;;;5086285;28;20448;-73
2021/10/31 13:06:57;;;;;;;;;;;18.40;99.90;;;;;;5044986;28;20317;-70
2021/10/31 13:09:23;;;;;;;;;;;18.50;99.90;;;;;;5054605;28;19917;-70
2021/10/31 13:11:50;;;;;;;;;;;18.40;99.90;;;;;;5056997;28;19943;-70
2021/10/31 13:14:23;;;;;;;;;;;18.30;99.90;;;;;;5059587;28;20378;-70
2021/10/31 13:16:59;;;;;;;;;;;18.20;99.90;;;;;;5039572;28;19912;-70
2021/10/31 13:19:24;;;;;;;;;;;18.30;99.90;;;;;;5060932;28;19917;-70
2021/10/31 13:21:56;;;;;;;;;;;18.20;99.90;;;;;;5058615;28;19969;-70
2021/10/31 13:24:22;;;;;;;;;;;18.10;99.90;;;;;;5054714;28;20506;-70
2021/10/31 13:26:47;;;;;;;;;;;18.30;99.90;;;;;;5078178;28;19952;-71
2021/10/31 13:29:13;;;;;;;;;;;18.20;99.90;;;;;;5050141;28;19920;-71
2021/10/31 13:31:38;;;;;;;;;;;18.30;99.90;;;;;;5078202;28;20003;-71
2021/10/31 13:34:07;;;;;;;;;;;18.20;99.90;;;;;;5045132;28;20322;-70
2021/10/31 13:36:37;;;;;;;;;;;18.20;99.90;;;;;;5041420;28;19963;-71
2021/10/31 13:39:02;;;;;;;;;;;18.20;99.90;;;;;;5046975;28;20660;-72
2021/10/31 13:41:28;;;;;;;;;;;18.20;99.90;;;;;;5038714;28;19923;-71
2021/10/31 13:43:58;;;;;;;;;;;18.20;99.90;;;;;;5048917;28;19917;-72
2021/10/31 13:46:23;;;;;;;;;;;18.10;99.90;;;;;;5047663;28;20405;-71
2021/10/31 13:48:54;;;;;;;;;;;18.20;99.90;;;;;;5060494;28;19916;-71
2021/10/31 13:51:21;;;;;;;;;;;18.00;99.90;;;;;;5049258;28;19924;-71
2021/10/31 13:53:46;;;;;;;;;;;18.00;99.90;;;;;;5061543;28;20639;-72
2021/10/31 13:56:12;;;;;;;;;;;18.00;99.90;;;;;;5061957;28;20053;-70
2021/10/31 13:58:38;;;;;;;;;;;18.00;99.90;;;;;;5059907;28;19916;-72
2021/10/31 14:01:03;;;;;;;;;;;17.90;99.90;;;;;;5056650;28;19916;-71
2021/10/31 14:03:29;;;;;;;;;;;18.00;99.90;;;;;;5072489;28;19923;-72
2021/10/31 14:06:05;;;;;;;;;;;18.00;99.90;;;;;;5074320;28;20299;-71
2021/10/31 14:08:40;;;;;;;;;;;18.00;99.90;;;;;;5064918;28;20398;-71
2021/10/31 14:11:10;;;;;;;;;;;18.10;99.90;;;;;;5069757;28;19920;-71
2021/10/31 14:13:38;;;;;;;;;;;18.00;99.90;;;;;;5076517;28;20259;-71
2021/10/31 14:16:15;;;;;;;;;;;18.00;99.90;;;;;;5060665;28;19952;-70
2021/10/31 14:18:41;;;;;;;;;;;18.00;99.90;;;;;;5054909;28;20279;-71
2021/10/31 14:21:06;;;;;;;;;;;18.10;99.90;;;;;;5066857;28;19920;-71
2021/10/31 14:23:32;;;;;;;;;;;18.10;99.90;;;;;;5069030;28;19913;-71